sensor_id;sensor_type;location;lat;lon;timestamp;pressure;altitude;pressure_sealevel;temperature;humidity
17615;BME280;8926;49.720;6.576;2023-09-19T00:00:45;99239.09;;;18.58;86.95
17615;BME280;8926;49.720;6.576;2023-09-19T00:03:12;99239.41;;;18.55;87.28
17615;BME280;8926;49.720;6.576;2023-09-19T00:05:39;99244.44;;;18.48;87.36
17615;BME280;8926;49.720;6.576;2023-09-19T00:08:05;99244.75;;;18.45;87.41
17615;BME280;8926;49.720;6.576;2023-09-19T00:10:31;99252.03;;;18.43;87.06
17615;BME280;8926;49.720;6.576;2023-09-19T00:13:00;99256.78;;;18.40;87.49
17615;BME280;8926;49.720;6.576;2023-09-19T00:15:30;99255.13;;;18.39;86.63
17615;BME280;8926;49.720;6.576;2023-09-19T00:17:58;99265.31;;;18.34;86.82
17615;BME280;8926;49.720;6.576;2023-09-19T00:20:24;99269.91;;;18.31;87.26
17615;BME280;8926;49.720;6.576;2023-09-19T00:22:50;99267.94;;;18.34;88.07
17615;BME280;8926;49.720;6.576;2023-09-19T00:25:17;99274.59;;;18.38;86.64
17615;BME280;8926;49.720;6.576;2023-09-19T00:27:42;99270.97;;;18.39;86.12
17615;BME280;8926;49.720;6.576;2023-09-19T00:30:11;99275.44;;;18.38;86.21
17615;BME280;8926;49.720;6.576;2023-09-19T00:32:41;99275.28;;;18.40;86.54
17615;BME280;8926;49.720;6.576;2023-09-19T00:35:07;99275.44;;;18.38;85.51
17615;BME280;8926;49.720;6.576;2023-09-19T00:37:36;99277.94;;;18.40;85.22
17615;BME280;8926;49.720;6.576;2023-09-19T00:40:06;99278.91;;;18.39;86.16
17615;BME280;8926;49.720;6.576;2023-09-19T00:42:33;99278.22;;;18.37;86.16
17615;BME280;8926;49.720;6.576;2023-09-19T00:44:59;99283.81;;;18.34;85.41
17615;BME280;8926;49.720;6.576;2023-09-19T00:47:28;99280.47;;;18.31;86.46
17615;BME280;8926;49.720;6.576;2023-09-19T00:49:55;99283.41;;;18.28;86.83
17615;BME280;8926;49.720;6.576;2023-09-19T00:52:20;99280.09;;;18.26;87.08
17615;BME280;8926;49.720;6.576;2023-09-19T00:54:47;99287.19;;;18.26;86.77
17615;BME280;8926;49.720;6.576;2023-09-19T00:57:16;99282.34;;;18.21;86.09
17615;BME280;8926;49.720;6.576;2023-09-19T00:59:42;99284.00;;;18.22;85.55
17615;BME280;8926;49.720;6.576;2023-09-19T01:02:08;99290.25;;;18.21;85.27
17615;BME280;8926;49.720;6.576;2023-09-19T01:04:34;99290.59;;;18.18;85.20
17615;BME280;8926;49.720;6.576;2023-09-19T01:06:59;99289.91;;;18.16;85.03
17615;BME280;8926;49.720;6.576;2023-09-19T01:09:25;99291.72;;;18.16;85.07
17615;BME280;8926;49.720;6.576;2023-09-19T01:11:53;99295.34;;;18.15;85.39
17615;BME280;8926;49.720;6.576;2023-09-19T01:14:42;99299.78;;;18.14;84.31
17615;BME280;8926;49.720;6.576;2023-09-19T01:17:27;99305.66;;;18.08;85.41
17615;BME280;8926;49.720;6.576;2023-09-19T01:28:21;99319.03;;;17.97;85.10
17615;BME280;8926;49.720;6.576;2023-09-19T01:30:57;99329.88;;;17.94;84.70
17615;BME280;8926;49.720;6.576;2023-09-19T01:33:24;99330.88;;;17.93;84.14
17615;BME280;8926;49.720;6.576;2023-09-19T01:35:49;99332.53;;;17.94;84.24
17615;BME280;8926;49.720;6.576;2023-09-19T01:38:15;99333.50;;;17.93;83.96
17615;BME280;8926;49.720;6.576;2023-09-19T01:40:42;99326.88;;;17.89;83.84
17615;BME280;8926;49.720;6.576;2023-09-19T01:43:17;99332.72;;;17.83;83.97
17615;BME280;8926;49.720;6.576;2023-09-19T01:46:24;99341.75;;;17.80;83.56
17615;BME280;8926;49.720;6.576;2023-09-19T01:49:15;99335.38;;;17.73;84.10
17615;BME280;8926;49.720;6.576;2023-09-19T01:52:04;99334.69;;;17.71;83.57
17615;BME280;8926;49.720;6.576;2023-09-19T01:54:33;99331.06;;;17.62;83.88
17615;BME280;8926;49.720;6.576;2023-09-19T01:59:35;99333.84;;;17.51;83.74
17615;BME280;8926;49.720;6.576;2023-09-19T02:02:01;99326.91;;;17.50;83.68
17615;BME280;8926;49.720;6.576;2023-09-19T02:04:28;99335.53;;;17.52;84.72
17615;BME280;8926;49.720;6.576;2023-09-19T02:06:53;99331.91;;;17.53;84.70
17615;BME280;8926;49.720;6.576;2023-09-19T02:09:19;99339.13;;;17.51;83.91
17615;BME280;8926;49.720;6.576;2023-09-19T02:11:44;99333.84;;;17.51;85.79
17615;BME280;8926;49.720;6.576;2023-09-19T02:14:09;99347.34;;;17.48;85.41
17615;BME280;8926;49.720;6.576;2023-09-19T02:16:35;99336.09;;;17.46;86.53
17615;BME280;8926;49.720;6.576;2023-09-19T02:19:00;99342.34;;;17.45;86.90
17615;BME280;8926;49.720;6.576;2023-09-19T02:21:26;99354.72;;;17.45;86.29
17615;BME280;8926;49.720;6.576;2023-09-19T02:23:55;99352.75;;;17.47;86.30
17615;BME280;8926;49.720;6.576;2023-09-19T02:26:20;99356.94;;;17.49;85.67
17615;BME280;8926;49.720;6.576;2023-09-19T02:28:46;99356.38;;;17.55;85.21
17615;BME280;8926;49.720;6.576;2023-09-19T02:31:12;99363.31;;;17.56;85.04
17615;BME280;8926;49.720;6.576;2023-09-19T02:33:37;99362.34;;;17.57;85.13
17615;BME280;8926;49.720;6.576;2023-09-19T02:36:03;99359.84;;;17.56;85.57
17615;BME280;8926;49.720;6.576;2023-09-19T02:38:29;99364.72;;;17.60;86.30
17615;BME280;8926;49.720;6.576;2023-09-19T02:40:54;99364.72;;;17.60;85.87
17615;BME280;8926;49.720;6.576;2023-09-19T02:43:23;99367.38;;;17.60;85.46
17615;BME280;8926;49.720;6.576;2023-09-19T02:45:49;99371.44;;;17.65;85.40
17615;BME280;8926;49.720;6.576;2023-09-19T02:48:15;99376.72;;;17.65;84.50
17615;BME280;8926;49.720;6.576;2023-09-19T02:50:41;99378.63;;;17.62;84.42
17615;BME280;8926;49.720;6.576;2023-09-19T02:53:07;99381.03;;;17.66;85.43
17615;BME280;8926;49.720;6.576;2023-09-19T02:55:32;99385.34;;;17.67;84.48
17615;BME280;8926;49.720;6.576;2023-09-19T02:57:58;99388.34;;;17.62;84.74
17615;BME280;8926;49.720;6.576;2023-09-19T03:00:23;99391.84;;;17.62;85.35
17615;BME280;8926;49.720;6.576;2023-09-19T03:02:55;99390.63;;;17.67;84.94
17615;BME280;8926;49.720;6.576;2023-09-19T03:05:22;99393.41;;;17.65;83.66
17615;BME280;8926;49.720;6.576;2023-09-19T03:07:49;99399.63;;;17.64;84.08
17615;BME280;8926;49.720;6.576;2023-09-19T03:10:19;99401.44;;;17.63;84.24
17615;BME280;8926;49.720;6.576;2023-09-19T03:12:46;99401.69;;;17.60;84.22
17615;BME280;8926;49.720;6.576;2023-09-19T03:15:11;99401.69;;;17.60;84.10
17615;BME280;8926;49.720;6.576;2023-09-19T03:17:36;99396.69;;;17.57;83.80
17615;BME280;8926;49.720;6.576;2023-09-19T03:20:03;99395.31;;;17.53;83.47
17615;BME280;8926;49.720;6.576;2023-09-19T03:25:00;99399.88;;;17.51;83.33
17615;BME280;8926;49.720;6.576;2023-09-19T03:27:26;99400.16;;;17.48;83.43
17615;BME280;8926;49.720;6.576;2023-09-19T03:29:52;99393.22;;;17.47;83.55
17615;BME280;8926;49.720;6.576;2023-09-19T03:32:18;99394.47;;;17.43;83.49
17615;BME280;8926;49.720;6.576;2023-09-19T03:34:44;99389.19;;;17.43;83.29
17615;BME280;8926;49.720;6.576;2023-09-19T03:37:09;99389.47;;;17.40;82.81
17615;BME280;8926;49.720;6.576;2023-09-19T03:39:35;99395.03;;;17.37;82.25
17615;BME280;8926;49.720;6.576;2023-09-19T03:42:01;99400.59;;;17.34;83.11
17615;BME280;8926;49.720;6.576;2023-09-19T03:44:28;99404.47;;;17.30;83.50
17615;BME280;8926;49.720;6.576;2023-09-19T03:46:53;99401.97;;;17.28;83.58
17615;BME280;8926;49.720;6.576;2023-09-19T03:49:20;99396.41;;;17.22;83.93
17615;BME280;8926;49.720;6.576;2023-09-19T03:51:45;99395.69;;;17.20;83.41
17615;BME280;8926;49.720;6.576;2023-09-19T03:54:11;99388.88;;;17.17;83.51
17615;BME280;8926;49.720;6.576;2023-09-19T03:56:37;99390.03;;;17.15;84.11
17615;BME280;8926;49.720;6.576;2023-09-19T03:59:03;99390.03;;;17.15;84.70
17615;BME280;8926;49.720;6.576;2023-09-19T04:01:28;99393.63;;;17.14;85.03
17615;BME280;8926;49.720;6.576;2023-09-19T04:03:55;99388.34;;;17.14;84.60
17615;BME280;8926;49.720;6.576;2023-09-19T04:06:21;99387.78;;;17.10;84.54
17615;BME280;8926;49.720;6.576;2023-09-19T04:08:47;99403.06;;;17.07;84.89
17615;BME280;8926;49.720;6.576;2023-09-19T04:11:13;99394.44;;;17.05;84.11
17615;BME280;8926;49.720;6.576;2023-09-19T04:13:39;99400.97;;;17.01;84.34
17615;BME280;8926;49.720;6.576;2023-09-19T04:16:04;99400.25;;;16.99;84.29
17615;BME280;8926;49.720;6.576;2023-09-19T04:18:29;99396.66;;;17.00;84.76
17615;BME280;8926;49.720;6.576;2023-09-19T04:21:01;99396.38;;;17.03;84.51
17615;BME280;8926;49.720;6.576;2023-09-19T04:23:29;99401.66;;;17.03;84.68
17615;BME280;8926;49.720;6.576;2023-09-19T04:25:54;99405.28;;;17.02;83.68
17615;BME280;8926;49.720;6.576;2023-09-19T04:28:20;99411.66;;;16.99;84.22
17615;BME280;8926;49.720;6.576;2023-09-19T04:30:45;99405.97;;;17.04;84.02
17615;BME280;8926;49.720;6.576;2023-09-19T04:33:10;99417.50;;;17.03;84.51
17615;BME280;8926;49.720;6.576;2023-09-19T04:35:39;99419.44;;;17.01;84.21
17615;BME280;8926;49.720;6.576;2023-09-19T04:38:07;99426.13;;;17.05;84.34
17615;BME280;8926;49.720;6.576;2023-09-19T04:40:33;99424.19;;;17.07;84.17
17615;BME280;8926;49.720;6.576;2023-09-19T04:42:59;99425.84;;;17.08;83.35
17615;BME280;8926;49.720;6.576;2023-09-19T04:45:28;99433.06;;;17.06;83.48
17615;BME280;8926;49.720;6.576;2023-09-19T04:47:54;99438.34;;;17.06;83.38
17615;BME280;8926;49.720;6.576;2023-09-19T04:50:20;99442.91;;;17.04;83.43
17615;BME280;8926;49.720;6.576;2023-09-19T04:52:49;99452.50;;;17.05;83.55
17615;BME280;8926;49.720;6.576;2023-09-19T04:55:16;99440.53;;;17.01;83.28
17615;BME280;8926;49.720;6.576;2023-09-19T04:57:51;99454.16;;;16.96;83.45
17615;BME280;8926;49.720;6.576;2023-09-19T05:00:19;99450.22;;;16.90;83.44
17615;BME280;8926;49.720;6.576;2023-09-19T05:02:52;99450.53;;;16.87;83.28
17615;BME280;8926;49.720;6.576;2023-09-19T05:05:18;99459.94;;;16.80;83.01
17615;BME280;8926;49.720;6.576;2023-09-19T05:07:44;99456.84;;;16.75;83.84
17615;BME280;8926;49.720;6.576;2023-09-19T05:10:10;99445.22;;;16.78;83.37
17615;BME280;8926;49.720;6.576;2023-09-19T05:12:36;99447.97;;;16.76;82.69
17615;BME280;8926;49.720;6.576;2023-09-19T05:15:03;99453.22;;;16.67;83.13
17615;BME280;8926;49.720;6.576;2023-09-19T05:17:29;99451.22;;;16.59;83.14
17615;BME280;8926;49.720;6.576;2023-09-19T05:19:54;99445.25;;;16.57;82.91
17615;BME280;8926;49.720;6.576;2023-09-19T05:22:20;99453.84;;;16.59;83.51
17615;BME280;8926;49.720;6.576;2023-09-19T05:24:45;99459.84;;;16.61;83.45
17615;BME280;8926;49.720;6.576;2023-09-19T05:27:14;99456.81;;;16.66;83.65
17615;BME280;8926;49.720;6.576;2023-09-19T05:29:42;99462.91;;;16.66;83.33
17615;BME280;8926;49.720;6.576;2023-09-19T05:32:07;99468.63;;;16.71;82.65
17615;BME280;8926;49.720;6.576;2023-09-19T05:34:33;99464.00;;;16.63;82.19
17615;BME280;8926;49.720;6.576;2023-09-19T05:36:58;99469.56;;;16.60;81.95
17615;BME280;8926;49.720;6.576;2023-09-19T05:39:23;99458.16;;;16.60;82.24
17615;BME280;8926;49.720;6.576;2023-09-19T05:41:49;99449.28;;;16.61;82.51
17615;BME280;8926;49.720;6.576;2023-09-19T05:44:14;99454.00;;;16.57;81.81
17615;BME280;8926;49.720;6.576;2023-09-19T05:46:40;99456.75;;;16.56;81.59
17615;BME280;8926;49.720;6.576;2023-09-19T05:49:05;99464.09;;;16.52;82.46
17615;BME280;8926;49.720;6.576;2023-09-19T05:51:31;99468.13;;;16.56;82.29
17615;BME280;8926;49.720;6.576;2023-09-19T05:53:56;99473.16;;;16.59;81.90
17615;BME280;8926;49.720;6.576;2023-09-19T05:56:23;99481.50;;;16.65;82.13
17615;BME280;8926;49.720;6.576;2023-09-19T05:58:48;99489.53;;;16.63;82.26
17615;BME280;8926;49.720;6.576;2023-09-19T06:01:14;99493.72;;;16.66;82.25
17615;BME280;8926;49.720;6.576;2023-09-19T06:03:40;99488.78;;;16.72;81.52
17615;BME280;8926;49.720;6.576;2023-09-19T06:06:05;99499.06;;;16.75;81.35
17615;BME280;8926;49.720;6.576;2023-09-19T06:08:35;99491.34;;;16.83;81.45
17615;BME280;8926;49.720;6.576;2023-09-19T06:11:00;99504.41;;;16.94;80.91
17615;BME280;8926;49.720;6.576;2023-09-19T06:13:28;99515.84;;;17.05;80.59
17615;BME280;8926;49.720;6.576;2023-09-19T06:15:55;99514.88;;;17.06;79.33
17615;BME280;8926;49.720;6.576;2023-09-19T06:18:21;99515.84;;;17.05;79.17
17615;BME280;8926;49.720;6.576;2023-09-19T06:20:47;99508.72;;;16.95;79.15
17615;BME280;8926;49.720;6.576;2023-09-19T06:23:13;99523.59;;;16.96;79.07
17615;BME280;8926;49.720;6.576;2023-09-19T06:25:39;99524.16;;;17.00;78.95
17615;BME280;8926;49.720;6.576;2023-09-19T06:28:05;99530.28;;;17.01;79.57
17615;BME280;8926;49.720;6.576;2023-09-19T06:30:33;99527.81;;;17.09;79.17
17615;BME280;8926;49.720;6.576;2023-09-19T06:33:00;99523.94;;;17.13;78.40
17615;BME280;8926;49.720;6.576;2023-09-19T06:35:26;99535.03;;;17.07;77.68
17615;BME280;8926;49.720;6.576;2023-09-19T06:37:52;99534.78;;;17.10;78.66
17615;BME280;8926;49.720;6.576;2023-09-19T06:40:18;99552.47;;;17.28;78.48
17615;BME280;8926;49.720;6.576;2023-09-19T06:42:50;99551.81;;;17.36;77.52
17615;BME280;8926;49.720;6.576;2023-09-19T06:45:15;99548.47;;;17.34;76.04
17615;BME280;8926;49.720;6.576;2023-09-19T06:47:48;99555.34;;;17.16;75.41
17615;BME280;8926;49.720;6.576;2023-09-19T06:50:17;99560.06;;;17.12;76.65
17615;BME280;8926;49.720;6.576;2023-09-19T06:52:44;99563.88;;;17.29;76.99
17615;BME280;8926;49.720;6.576;2023-09-19T06:55:10;99573.06;;;17.35;76.77
17615;BME280;8926;49.720;6.576;2023-09-19T06:57:38;99577.25;;;17.37;75.60
17615;BME280;8926;49.720;6.576;2023-09-19T07:00:06;99579.06;;;17.46;75.44
17615;BME280;8926;49.720;6.576;2023-09-19T07:02:35;99580.28;;;17.42;75.62
17615;BME280;8926;49.720;6.576;2023-09-19T07:05:00;99587.69;;;17.48;76.09
17615;BME280;8926;49.720;6.576;2023-09-19T07:07:25;99587.16;;;17.54;74.82
17615;BME280;8926;49.720;6.576;2023-09-19T07:09:51;99585.22;;;17.56;74.89
17615;BME280;8926;49.720;6.576;2023-09-19T07:12:16;99587.75;;;17.68;75.36
17615;BME280;8926;49.720;6.576;2023-09-19T07:14:43;99590.16;;;17.80;75.25
17615;BME280;8926;49.720;6.576;2023-09-19T07:17:08;99588.09;;;17.84;73.78
17615;BME280;8926;49.720;6.576;2023-09-19T07:19:33;99599.19;;;17.78;74.98
17615;BME280;8926;49.720;6.576;2023-09-19T07:21:59;99585.72;;;17.81;74.19
17615;BME280;8926;49.720;6.576;2023-09-19T07:24:27;99592.53;;;17.83;74.29
17615;BME280;8926;49.720;6.576;2023-09-19T07:26:53;99590.56;;;17.76;73.83
17615;BME280;8926;49.720;6.576;2023-09-19T07:29:19;99596.97;;;17.73;73.80
17615;BME280;8926;49.720;6.576;2023-09-19T07:31:44;99592.25;;;17.77;73.39
17615;BME280;8926;49.720;6.576;2023-09-19T07:34:09;99594.75;;;17.78;73.47
17615;BME280;8926;49.720;6.576;2023-09-19T07:36:35;99591.44;;;17.86;74.20
17615;BME280;8926;49.720;6.576;2023-09-19T07:39:02;99600.34;;;18.04;73.14
17615;BME280;8926;49.720;6.576;2023-09-19T07:41:32;99589.50;;;18.07;71.80
17615;BME280;8926;49.720;6.576;2023-09-19T07:43:57;99593.38;;;18.03;70.90
17615;BME280;8926;49.720;6.576;2023-09-19T07:46:22;99600.63;;;18.11;70.83
17615;BME280;8926;49.720;6.576;2023-09-19T07:48:49;99607.56;;;18.02;70.47
17615;BME280;8926;49.720;6.576;2023-09-19T07:51:15;99601.91;;;18.16;70.90
17615;BME280;8926;49.720;6.576;2023-09-19T07:53:41;99608.69;;;18.28;70.43
17615;BME280;8926;49.720;6.576;2023-09-19T07:56:08;99607.03;;;18.37;69.14
17615;BME280;8926;49.720;6.576;2023-09-19T07:58:34;99609.28;;;18.42;68.39
17615;BME280;8926;49.720;6.576;2023-09-19T08:01:07;99611.19;;;18.49;68.54
17615;BME280;8926;49.720;6.576;2023-09-19T08:03:39;99620.38;;;18.55;68.39
17615;BME280;8926;49.720;6.576;2023-09-19T08:06:06;99615.38;;;18.52;67.69
17615;BME280;8926;49.720;6.576;2023-09-19T08:08:32;99613.41;;;18.54;67.36
17615;BME280;8926;49.720;6.576;2023-09-19T08:10:58;99612.91;;;18.60;67.02
17615;BME280;8926;49.720;6.576;2023-09-19T08:13:24;99612.06;;;18.69;66.95
17615;BME280;8926;49.720;6.576;2023-09-19T08:15:50;99616.34;;;18.80;66.22
17615;BME280;8926;49.720;6.576;2023-09-19T08:18:16;99611.47;;;18.85;66.24
17615;BME280;8926;49.720;6.576;2023-09-19T08:20:42;99615.84;;;19.04;66.29
17615;BME280;8926;49.720;6.576;2023-09-19T08:23:08;99620.38;;;18.93;64.72
17615;BME280;8926;49.720;6.576;2023-09-19T08:25:33;99617.88;;;18.82;65.22
17615;BME280;8926;49.720;6.576;2023-09-19T08:27:59;99613.13;;;18.95;64.75
17615;BME280;8926;49.720;6.576;2023-09-19T08:30:27;99616.97;;;19.01;65.26
17615;BME280;8926;49.720;6.576;2023-09-19T08:33:02;99622.25;;;19.11;64.02
17615;BME280;8926;49.720;6.576;2023-09-19T08:35:28;99628.53;;;19.10;63.81
17615;BME280;8926;49.720;6.576;2023-09-19T08:37:53;99619.47;;;19.03;62.83
17615;BME280;8926;49.720;6.576;2023-09-19T08:40:20;99628.88;;;18.87;63.21
17615;BME280;8926;49.720;6.576;2023-09-19T08:42:54;99621.88;;;18.96;63.51
17615;BME280;8926;49.720;6.576;2023-09-19T08:45:24;99634.31;;;18.76;63.00
17615;BME280;8926;49.720;6.576;2023-09-19T08:48:22;99636.81;;;18.78;64.00
17615;BME280;8926;49.720;6.576;2023-09-19T08:50:52;99634.03;;;18.79;63.86
17615;BME280;8926;49.720;6.576;2023-09-19T08:53:50;99642.38;;;18.94;63.55
17615;BME280;8926;49.720;6.576;2023-09-19T08:56:18;99639.19;;;18.90;64.59
17615;BME280;8926;49.720;6.576;2023-09-19T08:58:53;99629.56;;;18.89;64.30
17615;BME280;8926;49.720;6.576;2023-09-19T09:01:21;99633.75;;;18.92;63.92
17615;BME280;8926;49.720;6.576;2023-09-19T09:03:51;99625.31;;;19.16;63.04
17615;BME280;8926;49.720;6.576;2023-09-19T09:06:19;99620.59;;;19.10;62.58
17615;BME280;8926;49.720;6.576;2023-09-19T09:08:46;99623.91;;;19.12;62.39
17615;BME280;8926;49.720;6.576;2023-09-19T09:11:12;99631.28;;;19.55;61.09
17615;BME280;8926;49.720;6.576;2023-09-19T09:13:38;99618.16;;;19.63;61.24
17615;BME280;8926;49.720;6.576;2023-09-19T09:16:04;99617.69;;;19.95;60.43
17615;BME280;8926;49.720;6.576;2023-09-19T09:18:29;99611.94;;;20.17;60.53
17615;BME280;8926;49.720;6.576;2023-09-19T09:20:57;99619.06;;;20.17;59.61
17615;BME280;8926;49.720;6.576;2023-09-19T09:23:23;99619.66;;;20.64;59.42
17615;BME280;8926;49.720;6.576;2023-09-19T09:25:52;99620.13;;;20.85;57.97
17615;BME280;8926;49.720;6.576;2023-09-19T09:28:26;99615.25;;;20.98;57.45
17615;BME280;8926;49.720;6.576;2023-09-19T09:30:54;99609.50;;;21.29;56.23
17615;BME280;8926;49.720;6.576;2023-09-19T09:33:20;99612.88;;;21.47;56.10
17615;BME280;8926;49.720;6.576;2023-09-19T09:35:55;99602.72;;;21.93;55.50
17615;BME280;8926;49.720;6.576;2023-09-19T09:38:24;99607.75;;;22.12;54.89
17615;BME280;8926;49.720;6.576;2023-09-19T09:40:54;99591.47;;;22.15;53.47
17615;BME280;8926;49.720;6.576;2023-09-19T09:43:29;99607.72;;;21.96;52.91
17615;BME280;8926;49.720;6.576;2023-09-19T09:46:10;99611.78;;;22.08;53.29
17615;BME280;8926;49.720;6.576;2023-09-19T09:49:00;99608.16;;;21.83;53.12
17615;BME280;8926;49.720;6.576;2023-09-19T09:51:45;99595.09;;;21.98;52.88
17615;BME280;8926;49.720;6.576;2023-09-19T09:54:15;99597.31;;;22.35;52.71
17615;BME280;8926;49.720;6.576;2023-09-19T09:56:57;99609.50;;;21.87;52.06
17615;BME280;8926;49.720;6.576;2023-09-19T10:02:28;99606.06;;;21.95;52.74
17615;BME280;8926;49.720;6.576;2023-09-19T10:04:58;99602.22;;;21.89;52.07
17615;BME280;8926;49.720;6.576;2023-09-19T10:07:31;99600.53;;;21.30;52.30
17615;BME280;8926;49.720;6.576;2023-09-19T10:10:08;99605.00;;;21.29;53.17
17615;BME280;8926;49.720;6.576;2023-09-19T10:12:48;99608.56;;;21.46;53.18
17615;BME280;8926;49.720;6.576;2023-09-19T10:15:16;99598.22;;;21.77;53.26
17615;BME280;8926;49.720;6.576;2023-09-19T10:17:44;99595.72;;;21.92;51.65
17615;BME280;8926;49.720;6.576;2023-09-19T10:20:13;99602.97;;;21.65;51.49
17615;BME280;8926;49.720;6.576;2023-09-19T10:22:59;99601.06;;;21.92;52.17
17615;BME280;8926;49.720;6.576;2023-09-19T10:25:26;99593.03;;;21.84;51.46
17615;BME280;8926;49.720;6.576;2023-09-19T10:27:54;99591.38;;;21.75;52.02
17615;BME280;8926;49.720;6.576;2023-09-19T10:30:22;99585.72;;;21.70;51.80
17615;BME280;8926;49.720;6.576;2023-09-19T10:33:00;99579.44;;;21.95;51.54
17615;BME280;8926;49.720;6.576;2023-09-19T10:35:26;99581.94;;;21.96;50.15
17615;BME280;8926;49.720;6.576;2023-09-19T10:37:54;99585.06;;;21.33;51.39
17615;BME280;8926;49.720;6.576;2023-09-19T10:40:22;99581.94;;;21.38;51.38
17615;BME280;8926;49.720;6.576;2023-09-19T10:42:53;99573.44;;;21.26;52.21
17615;BME280;8926;49.720;6.576;2023-09-19T10:45:19;99567.72;;;21.55;51.78
17615;BME280;8926;49.720;6.576;2023-09-19T10:47:45;99570.09;;;21.83;52.03
17615;BME280;8926;49.720;6.576;2023-09-19T10:50:20;99572.75;;;21.75;51.37
17615;BME280;8926;49.720;6.576;2023-09-19T10:52:47;99574.03;;;21.54;51.51
17615;BME280;8926;49.720;6.576;2023-09-19T10:55:19;99567.44;;;21.75;51.10
17615;BME280;8926;49.720;6.576;2023-09-19T10:57:46;99565.47;;;21.77;51.56
17615;BME280;8926;49.720;6.576;2023-09-19T11:00:12;99561.44;;;21.64;51.43
17615;BME280;8926;49.720;6.576;2023-09-19T11:05:42;99575.56;;;21.23;51.75
17615;BME280;8926;49.720;6.576;2023-09-19T11:08:08;99565.22;;;21.54;51.83
17615;BME280;8926;49.720;6.576;2023-09-19T11:10:50;99574.03;;;21.54;49.99
17615;BME280;8926;49.720;6.576;2023-09-19T11:13:26;99567.44;;;21.75;50.51
17615;BME280;8926;49.720;6.576;2023-09-19T11:26:45;99552.53;;;21.98;49.16
17615;BME280;8926;49.720;6.576;2023-09-19T11:29:29;99559.97;;;21.86;49.33
17615;BME280;8926;49.720;6.576;2023-09-19T11:31:56;99565.13;;;21.80;50.43
17615;BME280;8926;49.720;6.576;2023-09-19T11:37:04;99547.59;;;22.27;49.59
17615;BME280;8926;49.720;6.576;2023-09-19T11:40:06;99528.28;;;22.33;47.83
17615;BME280;8926;49.720;6.576;2023-09-19T11:42:47;99537.28;;;22.08;48.38
17615;BME280;8926;49.720;6.576;2023-09-19T11:48:06;99524.91;;;21.91;48.94
17615;BME280;8926;49.720;6.576;2023-09-19T11:50:33;99538.22;;;21.99;48.42
17615;BME280;8926;49.720;6.576;2023-09-19T11:53:01;99540.69;;;21.92;48.47
17615;BME280;8926;49.720;6.576;2023-09-19T11:55:28;99534.38;;;21.93;48.92
17615;BME280;8926;49.720;6.576;2023-09-19T11:57:57;99532.09;;;22.15;48.85
17615;BME280;8926;49.720;6.576;2023-09-19T12:00:24;99526.63;;;22.08;49.32
17615;BME280;8926;49.720;6.576;2023-09-19T12:02:55;99524.91;;;21.91;47.17
17615;BME280;8926;49.720;6.576;2023-09-19T12:05:29;99531.38;;;21.88;48.09
17615;BME280;8926;49.720;6.576;2023-09-19T12:07:55;99523.31;;;22.06;48.09
17615;BME280;8926;49.720;6.576;2023-09-19T12:10:20;99525.28;;;22.20;47.83
17615;BME280;8926;49.720;6.576;2023-09-19T12:12:48;99535.25;;;22.43;47.65
17615;BME280;8926;49.720;6.576;2023-09-19T12:15:14;99535.25;;;22.43;47.75
17615;BME280;8926;49.720;6.576;2023-09-19T12:17:41;99527.09;;;22.60;47.16
17615;BME280;8926;49.720;6.576;2023-09-19T12:20:08;99527.56;;;22.64;47.94
17615;BME280;8926;49.720;6.576;2023-09-19T12:22:44;99518.91;;;22.62;47.38
17615;BME280;8926;49.720;6.576;2023-09-19T12:25:11;99525.88;;;22.63;47.18
17615;BME280;8926;49.720;6.576;2023-09-19T12:27:48;99520.59;;;22.55;47.74
17615;BME280;8926;49.720;6.576;2023-09-19T12:30:18;99524.22;;;22.62;46.74
17615;BME280;8926;49.720;6.576;2023-09-19T12:32:45;99511.59;;;22.80;47.10
17615;BME280;8926;49.720;6.576;2023-09-19T12:35:27;99511.59;;;22.80;47.09
17615;BME280;8926;49.720;6.576;2023-09-19T12:37:53;99505.50;;;23.11;47.00
17615;BME280;8926;49.720;6.576;2023-09-19T12:40:21;99497.00;;;23.07;45.62
17615;BME280;8926;49.720;6.576;2023-09-19T12:42:53;99500.53;;;22.99;46.90
17615;BME280;8926;49.720;6.576;2023-09-19T12:45:20;99504.25;;;22.82;46.78
17615;BME280;8926;49.720;6.576;2023-09-19T12:48:23;99497.97;;;22.59;46.87
17615;BME280;8926;49.720;6.576;2023-09-19T12:51:10;99498.25;;;22.64;46.64
17615;BME280;8926;49.720;6.576;2023-09-19T12:53:41;99507.94;;;22.57;46.98
17615;BME280;8926;49.720;6.576;2023-09-19T12:56:12;99502.09;;;22.61;47.29
17615;BME280;8926;49.720;6.576;2023-09-19T12:58:52;99507.09;;;22.64;47.07
17615;BME280;8926;49.720;6.576;2023-09-19T13:01:20;99483.59;;;22.76;46.98
17615;BME280;8926;49.720;6.576;2023-09-19T13:06:37;99483.13;;;22.81;47.73
17615;BME280;8926;49.720;6.576;2023-09-19T13:09:09;99483.28;;;22.79;47.16
17615;BME280;8926;49.720;6.576;2023-09-19T13:11:38;99487.31;;;22.59;47.30
17615;BME280;8926;49.720;6.576;2023-09-19T13:14:19;99483.16;;;22.40;47.87
17615;BME280;8926;49.720;6.576;2023-09-19T13:17:08;99477.06;;;22.31;48.42
17615;BME280;8926;49.720;6.576;2023-09-19T13:19:50;99478.00;;;22.39;48.03
17615;BME280;8926;49.720;6.576;2023-09-19T13:25:24;99471.56;;;22.25;48.21
17615;BME280;8926;49.720;6.576;2023-09-19T13:27:52;99472.72;;;22.14;48.40
17615;BME280;8926;49.720;6.576;2023-09-19T13:30:20;99472.72;;;22.14;48.53
17615;BME280;8926;49.720;6.576;2023-09-19T13:32:46;99472.91;;;22.05;48.44
17615;BME280;8926;49.720;6.576;2023-09-19T13:35:15;99477.22;;;22.14;48.86
17615;BME280;8926;49.720;6.576;2023-09-19T13:37:41;99466.75;;;22.04;48.55
17615;BME280;8926;49.720;6.576;2023-09-19T13:40:12;99467.72;;;22.11;48.32
17615;BME280;8926;49.720;6.576;2023-09-19T13:42:38;99467.09;;;22.01;48.76
17615;BME280;8926;49.720;6.576;2023-09-19T13:45:04;99468.38;;;21.97;49.50
17615;BME280;8926;49.720;6.576;2023-09-19T13:47:32;99462.06;;;21.98;49.88
17615;BME280;8926;49.720;6.576;2023-09-19T13:50:02;99463.44;;;22.02;49.57
17615;BME280;8926;49.720;6.576;2023-09-19T13:52:29;99448.44;;;22.09;50.36
17615;BME280;8926;49.720;6.576;2023-09-19T13:54:56;99442.78;;;22.12;49.80
17615;BME280;8926;49.720;6.576;2023-09-19T13:57:30;99452.75;;;22.10;49.53
17615;BME280;8926;49.720;6.576;2023-09-19T13:59:56;99455.75;;;22.23;49.43